Time;durP1;ratioP1;P1;durP2;ratioP2;P2;SDS_P1;SDS_P2;PMS_P1;PMS_P2;Temp;Humidity;BMP_temperature;BMP_pressure;BME280_temperature;BME280_humidity;BME280_pressure;Samples;Min_cycle;Max_cycle;Signal;HPM_P1;HPM_P2
2022/05/21 00:02:15;;;;;;;20.00;5.07;;;;;;;14.28;70.11;95195.13;5063790;28;20601;-80
2022/05/21 00:04:46;;;;;;;11.97;4.77;;;;;;;14.33;68.77;95203.13;5069057;28;20280;-81
2022/05/21 00:07:15;;;;;;;10.67;4.07;;;;;;;14.27;69.93;95208.41;5063661;28;20201;-80
2022/05/21 00:09:44;;;;;;;11.53;3.50;;;;;;;14.19;69.42;95204.34;5063461;28;20626;-80
2022/05/21 00:12:15;;;;;;;7.67;3.70;;;;;;;14.15;69.44;95197.94;5064142;28;20235;-80
2022/05/21 00:14:47;;;;;;;10.30;3.17;;;;;;;14.13;68.33;95194.78;5067315;28;20205;-84
2022/05/21 00:17:19;;;;;;;9.30;3.27;;;;;;;14.14;68.66;95199.00;5063693;28;20600;-84
2022/05/21 00:19:52;;;;;;;7.77;3.20;;;;;;;14.04;69.41;95201.34;5064540;28;20210;-84
2022/05/21 00:22:22;;;;;;;9.50;3.90;;;;;;;14.04;70.20;95209.19;5066744;28;20208;-83
2022/05/21 00:24:53;;;;;;;10.30;4.10;;;;;;;13.94;69.84;95207.13;5067508;28;20201;-85
2022/05/21 00:27:24;;;;;;;9.77;3.67;;;;;;;13.94;70.54;95196.66;5068932;28;20197;-83
2022/05/21 00:30:01;;;;;;;6.40;3.70;;;;;;;13.82;71.63;95192.47;5068647;28;20591;-84
2022/05/21 00:32:33;;;;;;;6.60;3.80;;;;;;;13.78;72.36;95193.91;5067035;28;20667;-85
2022/05/21 00:35:09;;;;;;;9.80;4.03;;;;;;;13.77;73.48;95177.44;5067891;28;20205;-86
2022/05/21 00:37:39;;;;;;;11.27;4.30;;;;;;;13.74;73.89;95179.72;5063561;28;20316;-86
2022/05/21 00:40:11;;;;;;;9.77;4.10;;;;;;;13.71;74.02;95177.56;5065926;28;20245;-87
2022/05/21 00:42:47;;;;;;;11.90;4.53;;;;;;;13.64;74.78;95173.22;5067872;28;20236;-87
2022/05/21 00:45:18;;;;;;;8.97;4.03;;;;;;;13.49;75.47;95158.97;5062805;28;20213;-86
2022/05/21 00:47:48;;;;;;;11.33;4.13;;;;;;;13.51;75.80;95162.97;5065981;28;20203;-86
2022/05/21 00:50:24;;;;;;;10.73;4.27;;;;;;;13.52;76.66;95166.38;5068946;28;20209;-86
2022/05/21 00:52:57;;;;;;;12.53;4.57;;;;;;;13.48;76.81;95155.56;5065672;28;20231;-86
2022/05/21 00:55:36;;;;;;;13.40;4.20;;;;;;;13.47;76.72;95151.38;5068796;28;20198;-87
2022/05/21 01:01:12;;;;;;;15.10;4.87;;;;;;;13.34;77.66;95162.00;5067274;28;20262;-85
2022/05/21 01:03:44;;;;;;;16.50;4.90;;;;;;;13.23;77.06;95154.94;5069473;28;20221;-85
2022/05/21 01:06:18;;;;;;;12.03;5.03;;;;;;;13.14;77.60;95155.44;5066499;28;20197;-84
2022/05/21 01:08:49;;;;;;;13.00;8.20;;;;;;;13.12;78.29;95160.91;5067481;28;20201;-85
2022/05/21 01:11:21;;;;;;;20.83;10.80;;;;;;;13.05;77.73;95155.75;5067113;28;20276;-85
2022/05/21 01:13:54;;;;;;;18.80;9.90;;;;;;;13.01;77.37;95149.38;5063975;28;20225;-84
2022/05/21 01:16:24;;;;;;;15.23;8.20;;;;;;;13.01;77.42;95156.41;5066660;28;20233;-84
2022/05/21 01:18:56;;;;;;;12.00;7.63;;;;;;;12.99;78.14;95148.78;5069010;28;20663;-81
2022/05/21 01:21:27;;;;;;;14.10;6.97;;;;;;;12.86;78.81;95142.94;5066850;28;20324;-80
2022/05/21 01:24:02;;;;;;;25.13;6.37;;;;;;;12.80;78.51;95138.59;5066134;28;20197;-81
2022/05/21 01:26:32;;;;;;;14.80;6.40;;;;;;;12.83;77.65;95151.22;5066900;28;20200;-81
2022/05/21 01:29:07;;;;;;;12.83;6.77;;;;;;;12.80;77.72;95152.44;5067274;28;20201;-82
2022/05/21 01:31:42;;;;;;;12.73;6.53;;;;;;;12.82;78.76;95158.22;5065531;28;20205;-82
2022/05/21 01:34:15;;;;;;;12.17;6.60;;;;;;;12.77;79.45;95149.47;5066126;28;20287;-81
2022/05/21 01:36:43;;;;;;;14.10;6.27;;;;;;;12.73;80.45;95150.91;5066853;28;20193;-82
2022/05/21 01:39:16;;;;;;;16.10;6.60;;;;;;;12.64;80.02;95141.81;5065144;28;20209;-85
2022/05/21 01:41:48;;;;;;;11.43;6.10;;;;;;;12.59;79.62;95152.88;5066810;28;20679;-83
2022/05/21 01:44:41;;;;;;;12.93;6.83;;;;;;;12.61;79.88;95156.06;5066516;28;20211;-81
2022/05/21 01:47:14;;;;;;;16.17;6.13;;;;;;;12.63;79.81;95150.63;5068502;28;20620;-81
2022/05/21 01:49:45;;;;;;;13.83;6.77;;;;;;;12.57;80.53;95136.66;5068330;28;20202;-84
2022/05/21 01:52:14;;;;;;;13.43;6.20;;;;;;;12.54;80.88;95139.72;5066088;28;20236;-82
2022/05/21 01:54:44;;;;;;;14.00;6.40;;;;;;;12.43;80.79;95130.81;5065779;28;20646;-80
2022/05/21 01:57:15;;;;;;;16.73;6.07;;;;;;;12.49;81.28;95139.56;5063784;28;20211;-81
2022/05/21 01:59:49;;;;;;;16.50;5.90;;;;;;;12.44;81.47;95126.38;5065627;28;20213;-81
2022/05/21 02:02:23;;;;;;;9.63;5.67;;;;;;;12.48;81.45;95135.34;5063796;28;20220;-81
2022/05/21 02:04:52;;;;;;;11.97;5.40;;;;;;;12.46;81.38;95143.41;5058323;28;20206;-82
2022/05/21 02:07:22;;;;;;;13.40;5.13;;;;;;;12.28;80.14;95142.59;5069732;28;20288;-81
2022/05/21 02:09:55;;;;;;;10.50;4.50;;;;;;;12.07;80.74;95132.56;5074036;28;20580;-81
2022/05/21 02:12:24;;;;;;;15.37;4.90;;;;;;;11.88;81.16;95116.13;5074730;28;20707;-80
2022/05/21 02:14:54;;;;;;;15.80;5.40;;;;;;;11.99;83.80;95127.63;5072512;28;20209;-82
2022/05/21 02:17:23;;;;;;;10.13;5.53;;;;;;;11.99;82.86;95122.44;5072093;28;20232;-84
2022/05/21 02:19:55;;;;;;;13.20;5.77;;;;;;;12.00;83.18;95117.03;5072510;28;20209;-83
2022/05/21 02:22:25;;;;;;;12.27;5.27;;;;;;;12.00;83.35;95114.41;5074468;28;20239;-83
2022/05/21 02:25:00;;;;;;;8.50;5.53;;;;;;;11.93;83.87;95114.47;5073352;28;20205;-82
2022/05/21 02:27:33;;;;;;;9.93;6.17;;;;;;;11.97;85.04;95122.66;5064253;28;20219;-82
2022/05/21 02:30:12;;;;;;;10.60;5.47;;;;;;;11.99;85.19;95122.44;5065748;28;20630;-82
2022/05/21 02:32:46;;;;;;;11.93;5.30;;;;;;;12.03;84.97;95121.00;5069281;28;20313;-87
2022/05/21 02:35:17;;;;;;;16.73;5.57;;;;;;;12.03;85.02;95124.41;5074968;28;20200;-87
2022/05/21 02:40:41;;;;;;;16.83;5.57;;;;;;;12.06;84.77;95108.34;5068063;28;20232;-84
2022/05/21 02:43:13;;;;;;;20.77;5.90;;;;;;;11.99;85.10;95098.97;5066498;28;20584;-86
2022/05/21 02:45:44;;;;;;;12.23;5.50;;;;;;;11.97;85.19;95106.22;5062961;28;20200;-86
2022/05/21 02:48:19;;;;;;;18.30;6.80;;;;;;;11.93;84.50;95111.06;5060875;28;20572;-91
2022/05/21 02:50:49;;;;;;;29.47;12.63;;;;;;;11.85;84.81;95104.31;5063055;28;20204;-89
2022/05/21 02:53:23;;;;;;;39.27;21.17;;;;;;;11.70;84.88;95100.44;5069230;28;20657;-90
2022/05/21 02:55:57;;;;;;;51.70;28.03;;;;;;;11.77;84.29;95125.44;5067356;28;20189;-90
2022/05/21 02:58:27;;;;;;;54.40;28.23;;;;;;;11.81;85.34;95125.78;5069638;28;20204;-87
2022/05/21 03:00:59;;;;;;;49.90;28.93;;;;;;;11.78;85.62;95116.59;5069713;28;20556;-86
2022/05/21 03:03:29;;;;;;;63.23;36.90;;;;;;;11.82;85.86;95130.00;5071709;28;20262;-87
2022/05/21 03:06:02;;;;;;;73.73;41.80;;;;;;;11.79;84.88;95133.81;5067269;28;20637;-87
2022/05/21 03:11:22;;;;;;;52.03;31.13;;;;;;;11.71;85.96;95147.13;5070240;28;20693;-89
2022/05/21 03:13:53;;;;;;;51.37;30.87;;;;;;;11.78;86.77;95139.22;5068195;28;20225;-89
2022/05/21 03:16:23;;;;;;;50.67;27.30;;;;;;;11.66;86.17;95133.13;5068734;28;20263;-81
2022/05/21 03:18:52;;;;;;;45.57;25.20;;;;;;;11.70;86.16;95136.91;5069204;28;20216;-81
2022/05/21 03:21:24;;;;;;;42.60;24.70;;;;;;;11.73;85.72;95128.66;5064219;28;20232;-81
2022/05/21 03:23:56;;;;;;;36.67;18.03;;;;;;;11.75;85.29;95131.84;5066639;28;20275;-81
2022/05/21 03:26:31;;;;;;;31.63;18.10;;;;;;;11.71;84.38;95131.50;5065991;28;20201;-74
2022/05/21 03:29:02;;;;;;;38.70;22.60;;;;;;;11.79;85.21;95123.41;5068546;28;20197;-81
2022/05/21 03:31:37;;;;;;;37.63;23.03;;;;;;;11.84;85.71;95123.56;5065912;28;20205;-81
2022/05/21 03:34:12;;;;;;;41.47;24.83;;;;;;;11.85;85.73;95126.97;5068839;28;20229;-80
2022/05/21 03:36:41;;;;;;;48.80;25.23;;;;;;;11.78;85.65;95124.41;5067018;28;20298;-81
2022/05/21 03:39:13;;;;;;;43.90;25.00;;;;;;;11.76;85.08;95121.22;5067307;28;20212;-80
2022/05/21 03:41:44;;;;;;;48.40;22.77;;;;;;;11.70;84.66;95116.06;5068494;28;20279;-80
2022/05/21 03:44:18;;;;;;;41.97;20.90;;;;;;;11.54;85.48;95124.38;5068782;28;20301;-80
2022/05/21 03:46:51;;;;;;;37.73;23.00;;;;;;;11.53;86.43;95122.78;5064584;28;20258;-80
2022/05/21 03:49:20;;;;;;;37.60;22.27;;;;;;;11.52;88.35;95114.19;5067558;28;20206;-80
2022/05/21 03:51:49;;;;;;;43.10;23.13;;;;;;;11.63;88.87;95144.72;5071156;28;20200;-84
2022/05/21 03:54:20;;;;;;;41.73;23.20;;;;;;;11.67;89.51;95140.69;5069172;28;20275;-85
2022/05/21 03:56:53;;;;;;;38.17;22.77;;;;;;;11.74;89.03;95136.28;5066061;28;20203;-85
2022/05/21 03:59:23;;;;;;;44.37;21.50;;;;;;;11.77;89.07;95132.44;5068841;28;20202;-86
2022/05/21 04:02:01;;;;;;;38.60;15.23;;;;;;;11.85;88.68;95150.41;5068235;28;20200;-86
2022/05/21 04:04:31;;;;;;;23.37;11.87;;;;;;;11.84;88.61;95147.00;5067805;28;20207;-86
2022/05/21 04:07:01;;;;;;;18.17;10.50;;;;;;;11.87;87.63;95153.59;5067040;28;20559;-86
2022/05/21 04:09:40;;;;;;;19.53;10.13;;;;;;;11.92;86.22;95153.75;5069493;28;20289;-89
2022/05/21 04:12:13;;;;;;;17.57;9.97;;;;;;;11.98;85.51;95150.28;5069097;28;20362;-90
2022/05/21 04:14:47;;;;;;;16.03;9.53;;;;;;;12.06;84.01;95152.63;5077653;28;20241;-88
2022/05/21 04:17:19;;;;;;;20.37;8.67;;;;;;;12.14;82.68;95160.16;5076148;28;20229;-88
2022/05/21 04:19:55;;;;;;;17.43;7.73;;;;;;;12.07;82.58;95143.00;5078090;28;20587;-88
2022/05/21 04:22:23;;;;;;;16.23;8.03;;;;;;;12.24;82.02;95154.44;5066755;28;20205;-87
2022/05/21 04:25:14;;;;;;;17.70;7.53;;;;;;;12.28;81.76;95164.25;5069431;28;20665;-85
2022/05/21 04:27:50;;;;;;;16.80;6.37;;;;;;;12.37;79.96;95168.16;5068730;28;20202;-85
2022/05/21 04:30:25;;;;;;;14.20;6.60;;;;;;;12.42;77.90;95164.91;5069714;28;20201;-85
2022/05/21 04:32:57;;;;;;;11.83;6.30;;;;;;;12.40;77.44;95161.72;5065663;28;20321;-87
2022/05/21 04:36:17;;;;;;;17.37;6.97;;;;;;;12.46;78.10;95159.06;5069397;28;20255;-86
2022/05/21 04:38:25;;;;;;;15.00;6.53;;;;;;;12.49;78.42;95161.22;5066871;28;20201;-90
2022/05/21 04:40:56;;;;;;;10.93;6.20;;;;;;;12.55;78.47;95150.94;5070498;28;20229;-90
2022/05/21 04:43:28;;;;;;;11.57;5.73;;;;;;;12.60;76.95;95148.47;5071833;28;20284;-90
2022/05/21 04:45:57;;;;;;;9.30;5.60;;;;;;;12.68;75.63;95150.78;5070639;28;20259;-90
2022/05/21 04:48:28;;;;;;;10.67;5.37;;;;;;;12.74;75.15;95155.13;5069266;28;20205;-89
2022/05/21 04:51:04;;;;;;;8.37;4.60;;;;;;;12.76;73.81;95156.50;5070648;28;20204;-91
2022/05/21 04:53:36;;;;;;;10.37;4.70;;;;;;;12.78;72.83;95149.28;5068293;28;20224;-90
2022/05/21 04:56:06;;;;;;;7.20;4.50;;;;;;;12.88;72.87;95159.97;5064866;28;20209;-90
2022/05/21 04:58:37;;;;;;;8.30;4.70;;;;;;;12.86;72.55;95148.16;5068493;28;20311;-86
2022/05/21 05:01:07;;;;;;;8.77;4.77;;;;;;;12.95;72.43;95163.31;5066223;28;20200;-84
2022/05/21 05:03:40;;;;;;;10.87;4.40;;;;;;;13.05;72.25;95167.97;5065974;28;20571;-85
2022/05/21 05:06:11;;;;;;;8.60;4.30;;;;;;;13.08;72.03;95170.19;5068803;28;20212;-82
2022/05/21 05:08:40;;;;;;;9.67;4.67;;;;;;;13.07;71.25;95166.78;5064717;28;20209;-82
2022/05/21 05:11:14;;;;;;;8.87;4.50;;;;;;;13.15;72.69;95173.53;5066362;28;20197;-83
2022/05/21 05:13:47;;;;;;;23.17;4.87;;;;;;;13.21;72.20;95162.19;5068276;28;20726;-81
2022/05/21 05:16:19;;;;;;;12.33;4.37;;;;;;;13.23;71.40;95165.38;5065568;28;20745;-82
2022/05/21 05:18:52;;;;;;;15.20;4.60;;;;;;;13.29;71.50;95163.69;5061230;28;20206;-81
2022/05/21 05:21:24;;;;;;;7.87;4.20;;;;;;;13.26;70.87;95149.28;5064445;28;20288;-80
2022/05/21 05:23:57;;;;;;;11.23;4.73;;;;;;;13.35;69.88;95161.00;5066348;28;20197;-80
2022/05/21 05:26:26;;;;;;;7.60;4.60;;;;;;;13.34;69.40;95166.44;5066866;28;20270;-83
2022/05/21 05:29:03;;;;;;;8.23;4.50;;;;;;;13.35;68.50;95160.19;5065633;28;20259;-82
2022/05/21 05:31:34;;;;;;;7.20;4.70;;;;;;;13.34;68.42;95155.97;5063356;28;20205;-83
2022/05/21 05:34:10;;;;;;;14.47;5.03;;;;;;;13.40;67.23;95155.09;5067681;28;20217;-83
2022/05/21 05:36:41;;;;;;;8.53;4.63;;;;;;;13.46;66.83;95160.22;5067920;28;20197;-83
2022/05/21 05:39:13;;;;;;;10.83;5.03;;;;;;;13.54;66.56;95152.06;5068031;28;20213;-82
2022/05/21 05:41:41;;;;;;;7.67;4.67;;;;;;;13.60;67.04;95142.53;5065433;28;20274;-82
2022/05/21 05:44:15;;;;;;;10.03;4.90;;;;;;;13.76;67.22;95144.53;5064078;28;20663;-82
2022/05/21 05:46:46;;;;;;;11.70;5.00;;;;;;;13.85;68.32;95150.97;5066535;28;20225;-82
2022/05/21 05:49:15;;;;;;;11.73;5.00;;;;;;;13.91;68.33;95149.31;5065454;28;20288;-81
2022/05/21 05:51:45;;;;;;;9.07;4.97;;;;;;;13.80;68.25;95139.63;5064767;28;20197;-80
2022/05/21 05:54:15;;;;;;;11.80;4.70;;;;;;;13.88;68.00;95141.94;5060308;28;20296;-81
2022/05/21 05:56:46;;;;;;;10.80;5.50;;;;;;;13.94;68.97;95133.94;5065124;28;20201;-79
2022/05/21 06:04:48;;;;;;;10.97;4.60;;;;;;;14.29;67.53;95135.78;5067176;28;20189;-85
2022/05/21 06:07:18;;;;;;;9.00;4.83;;;;;;;14.33;66.87;95132.50;5066191;28;20193;-85
2022/05/21 06:09:49;;;;;;;12.37;5.17;;;;;;;14.38;66.02;95124.78;5064535;28;20251;-86
2022/05/21 06:12:22;;;;;;;11.33;5.20;;;;;;;14.44;65.99;95118.63;5063362;28;20208;-89
2022/05/21 06:14:54;;;;;;;13.77;5.23;;;;;;;14.56;65.94;95116.00;5062790;28;20292;-88
2022/05/21 06:17:23;;;;;;;9.47;5.50;;;;;;;14.65;65.62;95106.75;5063112;28;20556;-87
2022/05/21 06:19:53;;;;;;;14.07;4.97;;;;;;;14.75;64.83;95104.31;5063473;28;20277;-87
2022/05/21 06:22:23;;;;;;;7.10;4.90;;;;;;;14.78;64.91;95096.00;5066390;28;20210;-84
2022/05/21 06:24:53;;;;;;;11.50;4.90;;;;;;;14.90;64.10;95109.06;5065578;28;20197;-78
2022/05/21 06:27:22;;;;;;;10.77;4.73;;;;;;;14.93;64.07;95112.00;5061613;28;20590;-76
2022/05/21 06:29:53;;;;;;;14.57;4.80;;;;;;;14.95;63.95;95104.72;5062650;28;20284;-80
2022/05/21 06:32:24;;;;;;;9.90;4.90;;;;;;;15.09;63.42;95092.94;5064004;28;20200;-80
2022/05/21 06:34:57;;;;;;;11.03;4.60;;;;;;;15.12;62.49;95082.00;5065232;28;20221;-80
2022/05/21 06:37:27;;;;;;;12.20;4.60;;;;;;;15.28;62.51;95090.91;5064839;28;20208;-84
2022/05/21 06:39:57;;;;;;;11.27;5.00;;;;;;;15.24;62.19;95069.63;5066254;28;20201;-82
2022/05/21 06:42:29;;;;;;;11.53;5.00;;;;;;;15.44;62.39;95092.75;5065468;28;20201;-83
2022/05/21 06:45:02;;;;;;;14.27;5.30;;;;;;;15.54;61.48;95086.94;5066239;28;20235;-82
2022/05/21 06:47:30;;;;;;;11.30;5.03;;;;;;;15.67;59.84;95078.78;5067125;28;20573;-81
2022/05/21 06:49:59;;;;;;;7.17;4.50;;;;;;;15.71;58.75;95080.66;5065875;28;20275;-83
2022/05/21 06:52:32;;;;;;;13.00;5.13;;;;;;;15.80;57.72;95071.38;5064786;28;20198;-81
2022/05/21 06:55:02;;;;;;;14.13;4.47;;;;;;;15.88;58.07;95072.78;5064167;28;20289;-82
2022/05/21 06:57:31;;;;;;;14.40;4.60;;;;;;;15.99;57.80;95061.41;5063258;28;20205;-83
2022/05/21 07:00:04;;;;;;;13.63;4.70;;;;;;;16.14;57.62;95064.25;5066325;28;20209;-83
2022/05/21 07:02:33;;;;;;;11.70;4.40;;;;;;;16.27;57.30;95060.47;5065358;28;20202;-82
2022/05/21 07:07:48;;;;;;;12.83;5.00;;;;;;;16.56;54.98;95053.25;5061696;28;20250;-83
2022/05/21 07:10:20;;;;;;;13.87;5.30;;;;;;;16.63;53.70;95049.41;5067133;28;20695;-75
2022/05/21 07:12:53;;;;;;;10.80;4.87;;;;;;;16.69;53.70;95052.88;5066899;28;20201;-84
2022/05/21 07:15:24;;;;;;;9.87;4.83;;;;;;;16.77;53.53;95042.72;5066103;28;20621;-83
2022/05/21 07:18:03;;;;;;;10.67;5.33;;;;;;;16.81;53.96;95030.72;5064363;28;20197;-83
2022/05/21 07:20:34;;;;;;;12.63;4.90;;;;;;;16.87;54.41;95026.31;5065213;28;20695;-81
2022/05/21 07:23:05;;;;;;;11.47;4.90;;;;;;;17.00;54.27;95026.69;5064636;28;20205;-83
2022/05/21 07:25:39;;;;;;;9.43;4.97;;;;;;;17.11;53.64;95027.59;5064828;28;20293;-83
2022/05/21 07:28:09;;;;;;;17.93;5.37;;;;;;;17.24;53.52;95032.44;5064515;28;20206;-82
2022/05/21 07:30:47;;;;;;;10.23;4.60;;;;;;;17.32;53.55;95026.72;5065270;28;20224;-82
2022/05/21 07:33:21;;;;;;;10.80;4.70;;;;;;;17.41;53.18;95022.59;5061003;28;20197;-82
2022/05/21 07:35:53;;;;;;;14.80;5.00;;;;;;;17.53;52.79;95032.94;5064390;28;20826;-83
2022/05/21 07:38:24;;;;;;;12.90;4.77;;;;;;;17.65;53.11;95030.94;5065175;28;20671;-82
2022/05/21 07:40:56;;;;;;;12.63;4.80;;;;;;;17.74;51.81;95021.56;5064071;28;20306;-82
2022/05/21 07:43:29;;;;;;;10.40;5.10;;;;;;;17.86;51.85;95024.78;5065477;28;20256;-80
2022/05/21 07:46:01;;;;;;;14.43;4.73;;;;;;;17.98;51.77;95017.47;5064657;28;20197;-81
2022/05/21 07:48:31;;;;;;;17.90;5.00;;;;;;;18.05;50.83;95009.38;5064240;28;20280;-80
2022/05/21 07:51:02;;;;;;;12.67;4.50;;;;;;;18.14;50.74;95007.84;5067324;28;20205;-80
2022/05/21 07:53:33;;;;;;;18.08;5.35;;;;;;;18.24;50.57;95015.78;5065504;28;20575;-80
2022/05/21 07:56:04;;;;;;;16.63;4.72;;;;;;;18.34;50.16;95010.56;5068733;28;20236;-80
2022/05/21 07:58:34;;;;;;;18.45;5.18;;;;;;;18.40;49.64;95000.84;5068372;28;20217;-80
2022/05/21 08:01:10;;;;;;;12.20;4.47;;;;;;;18.47;49.31;94998.78;5068631;28;20198;-76
2022/05/21 08:03:40;;;;;;;11.05;4.55;;;;;;;18.59;49.08;94997.53;5066694;28;20205;-77
2022/05/21 08:06:10;;;;;;;14.57;4.53;;;;;;;18.69;49.31;94989.66;5065213;28;20710;-77
2022/05/21 08:08:39;;;;;;;10.23;4.65;;;;;;;18.81;48.84;94988.63;5064453;28;20715;-75
2022/05/21 08:11:10;;;;;;;7.50;4.47;;;;;;;18.92;48.85;94991.03;5065585;28;20388;-84
2022/05/21 08:13:42;;;;;;;13.77;4.82;;;;;;;19.03;48.33;94970.75;5063708;28;20259;-78
2022/05/21 08:16:16;;;;;;;10.82;3.88;;;;;;;19.11;47.52;94976.28;5067410;28;20253;-82
2022/05/21 08:18:50;;;;;;;10.40;4.72;;;;;;;19.19;47.05;94969.72;5062892;28;20206;-74
2022/05/21 08:21:19;;;;;;;13.88;4.90;;;;;;;19.27;47.25;94964.72;5066403;28;20207;-80
2022/05/21 08:29:38;;;;;;;12.68;5.40;;;;;;;19.62;47.85;94968.41;5067589;28;20251;-82
2022/05/21 08:32:13;;;;;;;9.65;4.53;;;;;;;19.77;47.53;94971.00;5070891;28;20224;-83
2022/05/21 08:34:45;;;;;;;9.35;4.60;;;;;;;19.92;47.29;94964.88;5068993;28;20274;-83
2022/05/21 08:37:15;;;;;;;13.40;4.72;;;;;;;20.04;46.98;94960.91;5065732;28;20207;-83
2022/05/21 08:39:46;;;;;;;9.75;5.15;;;;;;;20.18;47.00;94963.75;5067250;28;20240;-83
2022/05/21 08:42:26;;;;;;;9.18;4.70;;;;;;;20.29;46.54;94962.69;5064958;28;20791;-83
2022/05/21 08:45:09;;;;;;;11.40;4.28;;;;;;;20.45;46.58;94956.28;5060203;28;20800;-82
2022/05/21 08:47:43;;;;;;;9.70;4.20;;;;;;;20.61;45.91;94959.63;5063623;28;20216;-82
2022/05/21 08:50:17;;;;;;;17.05;4.00;;;;;;;20.66;44.46;94952.47;5064902;28;20419;-82
2022/05/21 08:52:55;;;;;;;10.90;4.18;;;;;;;20.76;44.29;94954.25;5063525;28;20210;-82
2022/05/21 08:55:30;;;;;;;14.48;4.20;;;;;;;20.86;44.24;94951.56;5060741;28;20236;-81
2022/05/21 08:58:05;;;;;;;9.10;3.97;;;;;;;20.92;45.08;94945.94;5062708;28;20201;-83
2022/05/21 09:00:40;;;;;;;10.60;3.65;;;;;;;21.17;45.38;94941.59;5066185;28;20317;-82
2022/05/21 09:03:17;;;;;;;10.07;3.65;;;;;;;21.34;44.38;94950.69;5065359;28;20197;-82
2022/05/21 09:05:51;;;;;;;6.35;3.80;;;;;;;21.50;43.78;94951.34;5064404;28;20379;-82
2022/05/21 09:08:27;;;;;;;10.13;3.70;;;;;;;21.63;43.42;94945.41;5062495;28;20227;-83
2022/05/21 09:11:01;;;;;;;8.82;3.53;;;;;;;21.83;43.26;94950.50;5063863;28;20220;-82
2022/05/21 09:13:44;;;;;;;10.32;3.95;;;;;;;22.09;41.40;94947.59;5058464;28;20261;-82
2022/05/21 09:19:08;;;;;;;7.93;3.80;;;;;;;22.47;39.36;94941.31;5064205;28;20927;-82
2022/05/21 09:21:46;;;;;;;6.45;3.35;;;;;;;22.68;39.63;94939.22;5063173;28;20320;-81
2022/05/21 09:24:37;;;;;;;8.68;3.78;;;;;;;22.92;39.30;94940.72;5061053;28;20196;-82
2022/05/21 09:27:22;;;;;;;9.95;3.33;;;;;;;23.01;37.19;94943.50;5062420;28;20232;-81
2022/05/21 09:29:57;;;;;;;9.40;3.50;;;;;;;23.16;37.42;94940.63;5062896;28;20209;-81
2022/05/21 09:32:36;;;;;;;7.07;3.35;;;;;;;23.34;38.28;94939.00;5060164;28;20197;-82
2022/05/21 09:35:14;;;;;;;9.48;3.63;;;;;;;23.56;36.56;94932.03;5063580;28;20220;-82
2022/05/21 09:37:46;;;;;;;6.15;3.15;;;;;;;23.66;34.43;94931.84;5062970;28;20318;-81
2022/05/21 09:40:31;;;;;;;6.43;2.60;;;;;;;23.82;35.17;94937.66;5063810;28;20202;-81
2022/05/21 09:45:54;;;;;;;8.35;2.78;;;;;;;24.24;33.99;94936.66;5065869;28;20319;-82
2022/05/21 09:48:27;;;;;;;12.07;2.70;;;;;;;24.40;33.88;94939.75;5046611;28;20201;-81
2022/05/21 09:51:01;;;;;;;9.88;2.88;;;;;;;24.47;34.63;94918.91;5062543;28;20201;-82
2022/05/21 09:53:38;;;;;;;5.57;3.17;;;;;;;24.64;35.16;94927.81;5062719;28;20213;-81
2022/05/21 09:56:11;;;;;;;9.45;2.92;;;;;;;24.82;34.87;94918.13;5062983;28;20739;-82
2022/05/21 09:58:42;;;;;;;4.40;2.67;;;;;;;25.03;35.50;94929.09;5063412;28;20394;-82
2022/05/21 10:01:19;;;;;;;8.07;3.63;;;;;;;25.18;33.62;94920.78;5063450;28;20205;-82
2022/05/21 10:03:53;;;;;;;8.05;3.83;;;;;;;25.21;33.90;94922.81;5060906;28;20660;-81
2022/05/21 10:06:30;;;;;;;8.23;2.88;;;;;;;25.29;33.63;94909.56;5060191;28;20217;-82
2022/05/21 10:12:04;;;;;;;4.38;2.80;;;;;;;25.40;33.33;94907.44;5026614;28;20215;-82
2022/05/21 10:14:42;;;;;;;7.95;3.00;;;;;;;25.54;34.13;94897.53;5067127;28;20233;-81
2022/05/21 10:17:21;;;;;;;5.47;2.85;;;;;;;25.72;34.36;94891.19;5068720;28;20280;-82
2022/05/21 10:19:59;;;;;;;8.63;2.72;;;;;;;26.03;34.29;94887.72;5066209;28;20520;-81
2022/05/21 10:22:51;;;;;;;4.93;2.65;;;;;;;26.34;34.07;94886.59;5064692;28;20586;-81
2022/05/21 10:25:25;;;;;;;4.28;2.60;;;;;;;26.46;32.71;94881.41;5064596;28;20296;-81
2022/05/21 10:28:21;;;;;;;4.22;2.50;;;;;;;26.66;32.79;94880.03;5062321;28;20251;-82
2022/05/21 10:31:19;;;;;;;9.43;2.67;;;;;;;26.93;32.68;94881.63;5062928;28;20223;-82
2022/05/21 10:34:03;;;;;;;6.70;2.75;;;;;;;27.20;32.79;94875.16;5060925;28;20378;-81
2022/05/21 10:36:51;;;;;;;6.80;2.80;;;;;;;27.43;31.27;94881.91;5063391;28;20221;-81
2022/05/21 10:39:39;;;;;;;8.48;2.78;;;;;;;27.63;31.23;94873.19;5063512;28;20659;-83
2022/05/21 10:42:24;;;;;;;9.32;2.85;;;;;;;27.82;30.70;94864.81;5063571;28;20241;-82
2022/05/21 10:45:15;;;;;;;5.10;2.58;;;;;;;27.90;30.90;94864.78;5063298;28;20208;-82
2022/05/21 10:48:04;;;;;;;3.22;2.35;;;;;;;27.95;29.69;94866.47;5063444;28;20209;-82
2022/05/21 10:50:42;;;;;;;3.45;2.03;;;;;;;28.14;29.18;94864.19;5061562;28;20672;-81
2022/05/21 10:53:39;;;;;;;5.35;2.20;;;;;;;28.21;28.82;94851.09;5062496;28;20197;-77
2022/05/21 10:56:26;;;;;;;5.47;2.80;;;;;;;28.42;28.88;94845.78;5062085;28;20229;-77
2022/05/21 10:59:11;;;;;;;3.35;2.28;;;;;;;28.50;29.33;94839.59;5060717;28;20240;-77
2022/05/21 11:01:52;;;;;;;4.68;2.53;;;;;;;28.87;28.73;94843.25;5062332;28;20523;-77
2022/05/21 11:04:46;;;;;;;5.38;2.50;;;;;;;29.28;28.18;94835.19;5059645;28;20197;-77
2022/05/21 11:07:44;;;;;;;2.90;2.20;;;;;;;29.62;27.17;94831.31;5059592;28;20202;-77
2022/05/21 11:10:25;;;;;;;4.32;2.47;;;;;;;29.78;25.61;94821.53;5063088;28;20197;-77
2022/05/21 11:13:04;;;;;;;3.80;2.40;;;;;;;29.78;24.83;94803.53;5059970;28;20213;-76
2022/05/21 11:15:41;;;;;;;3.65;2.00;;;;;;;29.99;25.30;94794.59;5061877;28;20220;-78
2022/05/21 11:18:20;;;;;;;5.53;2.38;;;;;;;30.02;25.84;94799.28;5062327;28;20248;-77
2022/05/21 11:20:56;;;;;;;4.10;2.30;;;;;;;30.16;25.37;94802.44;5059041;28;20197;-77
2022/05/21 11:23:34;;;;;;;5.57;2.10;;;;;;;30.22;23.71;94793.00;5061457;28;20197;-77
2022/05/21 11:26:13;;;;;;;3.55;2.30;;;;;;;30.31;24.44;94783.72;5064584;28;20212;-77
2022/05/21 11:28:56;;;;;;;3.88;2.08;;;;;;;30.29;24.19;94791.34;5066168;28;20197;-77
2022/05/21 11:37:23;;;;;;;5.88;2.72;;;;;;;30.75;23.98;94789.22;5065162;28;20653;-78
2022/05/21 11:39:59;;;;;;;2.75;2.22;;;;;;;30.97;24.50;94779.88;5062356;28;20766;-78
2022/05/21 11:42:32;;;;;;;3.15;2.20;;;;;;;30.93;24.27;94777.09;5045083;28;20280;-78
2022/05/21 11:45:26;;;;;;;5.55;2.40;;;;;;;30.88;25.58;94782.69;5046559;28;20201;-78
2022/05/21 11:48:15;;;;;;;5.60;2.30;;;;;;;31.03;24.44;94781.94;5045113;28;20206;-78
2022/05/21 11:50:47;;;;;;;2.97;2.10;;;;;;;31.07;23.83;94785.50;5048181;28;20201;-78
2022/05/21 11:53:39;;;;;;;2.78;2.10;;;;;;;31.23;23.63;94767.50;5048342;28;20685;-78
2022/05/21 11:56:12;;;;;;;4.05;2.15;;;;;;;31.36;23.58;94774.38;5047988;28;20272;-78
2022/05/21 11:59:25;;;;;;;6.35;2.65;;;;;;;31.56;24.19;94767.19;5046316;28;20218;-77
2022/05/21 12:02:13;;;;;;;4.18;2.30;;;;;;;31.27;24.26;94768.38;5047544;28;20194;-77
2022/05/21 12:05:08;;;;;;;2.90;2.13;;;;;;;31.18;24.11;94754.31;5046333;28;20599;-77
2022/05/21 12:07:59;;;;;;;4.50;2.25;;;;;;;31.34;24.08;94759.72;5044304;28;20221;-77
2022/05/21 12:10:55;;;;;;;2.75;2.17;;;;;;;31.50;24.25;94767.81;5047731;28;20202;-77
2022/05/21 12:13:53;;;;;;;4.75;2.33;;;;;;;31.59;23.93;94760.34;5044666;28;20291;-77
2022/05/21 12:16:48;;;;;;;2.85;2.10;;;;;;;31.56;23.86;94759.13;5044016;28;20250;-77
2022/05/21 12:20:04;;;;;;;5.20;2.47;;;;;;;31.81;23.97;94752.41;5043043;28;20216;-82
2022/05/21 12:22:55;;;;;;;6.78;2.40;;;;;;;31.88;24.06;94751.81;5043295;28;20564;-82
2022/05/21 12:25:58;;;;;;;5.07;2.33;;;;;;;32.10;24.28;94743.09;5044651;28;20209;-83
2022/05/21 12:28:45;;;;;;;3.83;2.60;;;;;;;32.19;23.47;94749.06;5037640;28;20202;-82
2022/05/21 12:31:23;;;;;;;4.40;2.40;;;;;;;32.38;23.80;94743.69;5044299;28;20275;-80
2022/05/21 12:34:12;;;;;;;3.10;2.00;;;;;;;32.44;23.35;94744.97;5044483;28;20743;-80
2022/05/21 12:37:04;;;;;;;6.88;2.28;;;;;;;32.48;23.37;94740.44;5044867;28;20230;-80
2022/05/21 12:39:52;;;;;;;2.00;1.83;;;;;;;32.47;23.16;94736.19;5044447;28;20679;-81
2022/05/21 12:42:29;;;;;;;3.05;2.22;;;;;;;32.61;24.15;94732.28;5064586;28;20707;-79